sensor_id;sensor_type;location;lat;lon;timestamp;pressure;altitude;pressure_sealevel;temperature;humidity
79752;BME280;69234;47.446;21.636;2023-12-22T00:00:01;98203.81;;;4.14;100.00
79752;BME280;69234;47.446;21.636;2023-12-22T00:00:32;98215.97;;;4.17;100.00
79752;BME280;69234;47.446;21.636;2023-12-22T00:01:03;98206.47;;;4.14;100.00
79752;BME280;69234;47.446;21.636;2023-12-22T00:01:34;98203.69;;;4.16;100.00
79752;BME280;69234;47.446;21.636;2023-12-22T00:02:06;98208.28;;;4.14;100.00
79752;BME280;69234;47.446;21.636;2023-12-22T00:02:37;98209.13;;;4.14;100.00
79752;BME280;69234;47.446;21.636;2023-12-22T00:03:08;98205.34;;;4.17;100.00
79752;BME280;69234;47.446;21.636;2023-12-22T00:03:39;98211.47;;;4.17;100.00
79752;BME280;69234;47.446;21.636;2023-12-22T00:04:09;98201.16;;;4.14;100.00
79752;BME280;69234;47.446;21.636;2023-12-22T00:04:40;98202.69;;;4.17;100.00
79752;BME280;69234;47.446;21.636;2023-12-22T00:05:11;98201.41;;;4.21;100.00
79752;BME280;69234;47.446;21.636;2023-12-22T00:05:42;98194.56;;;4.18;100.00
79752;BME280;69234;47.446;21.636;2023-12-22T00:06:13;98201.03;;;4.16;100.00
79752;BME280;69234;47.446;21.636;2023-12-22T00:06:44;98191.06;;;4.18;100.00
79752;BME280;69234;47.446;21.636;2023-12-22T00:07:15;98196.25;;;4.19;100.00
79752;BME280;69234;47.446;21.636;2023-12-22T00:07:46;98188.41;;;4.18;100.00
79752;BME280;69234;47.446;21.636;2023-12-22T00:08:17;98196.09;;;4.21;100.00
79752;BME280;69234;47.446;21.636;2023-12-22T00:08:48;98200.84;;;4.17;100.00
79752;BME280;69234;47.446;21.636;2023-12-22T00:09:19;98200.84;;;4.17;100.00
79752;BME280;69234;47.446;21.636;2023-12-22T00:09:50;98194.72;;;4.17;100.00
79752;BME280;69234;47.446;21.636;2023-12-22T00:10:21;98208.00;;;4.17;100.00
79752;BME280;69234;47.446;21.636;2023-12-22T00:10:52;98202.97;;;4.14;100.00
79752;BME280;69234;47.446;21.636;2023-12-22T00:11:23;98201.97;;;4.15;100.00
79752;BME280;69234;47.446;21.636;2023-12-22T00:11:54;98204.63;;;4.15;100.00
79752;BME280;69234;47.446;21.636;2023-12-22T00:12:24;98211.66;;;4.16;100.00
79752;BME280;69234;47.446;21.636;2023-12-22T00:12:55;98208.66;;;4.19;100.00
79752;BME280;69234;47.446;21.636;2023-12-22T00:13:26;98213.03;;;4.20;100.00
79752;BME280;69234;47.446;21.636;2023-12-22T00:13:57;98215.81;;;4.18;100.00
79752;BME280;69234;47.446;21.636;2023-12-22T00:14:28;98220.84;;;4.21;100.00
79752;BME280;69234;47.446;21.636;2023-12-22T00:14:59;98219.84;;;4.22;100.00
79752;BME280;69234;47.446;21.636;2023-12-22T00:15:30;98210.38;;;4.20;100.00
79752;BME280;69234;47.446;21.636;2023-12-22T00:16:01;98215.41;;;4.23;100.00
79752;BME280;69234;47.446;21.636;2023-12-22T00:16:32;98219.72;;;4.24;100.00
79752;BME280;69234;47.446;21.636;2023-12-22T00:17:03;98219.72;;;4.24;100.00
79752;BME280;69234;47.446;21.636;2023-12-22T00:17:34;98214.53;;;4.22;100.00
79752;BME280;69234;47.446;21.636;2023-12-22T00:18:05;98209.53;;;4.19;100.00
79752;BME280;69234;47.446;21.636;2023-12-22T00:18:37;98216.63;;;4.19;100.00
79752;BME280;69234;47.446;21.636;2023-12-22T00:19:08;98211.31;;;4.19;100.00
79752;BME280;69234;47.446;21.636;2023-12-22T00:19:39;98212.75;;;4.23;100.00
79752;BME280;69234;47.446;21.636;2023-12-22T00:20:11;98206.16;;;4.17;100.00
79752;BME280;69234;47.446;21.636;2023-12-22T00:20:43;98200.41;;;4.22;100.00
79752;BME280;69234;47.446;21.636;2023-12-22T00:21:14;98200.56;;;4.20;100.00
79752;BME280;69234;47.446;21.636;2023-12-22T00:21:47;98199.47;;;4.23;100.00
79752;BME280;69234;47.446;21.636;2023-12-22T00:22:18;98201.41;;;4.21;100.00
79752;BME280;69234;47.446;21.636;2023-12-22T00:22:49;98180.97;;;4.21;100.00
79752;BME280;69234;47.446;21.636;2023-12-22T00:23:21;98187.97;;;4.22;100.00
79752;BME280;69234;47.446;21.636;2023-12-22T00:23:52;98190.63;;;4.22;100.00
79752;BME280;69234;47.446;21.636;2023-12-22T00:24:23;98174.69;;;4.22;100.00
79752;BME280;69234;47.446;21.636;2023-12-22T00:24:53;98179.03;;;4.23;100.00
79752;BME280;69234;47.446;21.636;2023-12-22T00:25:24;98175.38;;;4.24;100.00
79752;BME280;69234;47.446;21.636;2023-12-22T00:25:55;98165.59;;;4.25;100.00
79752;BME280;69234;47.446;21.636;2023-12-22T00:26:26;98165.59;;;4.25;100.00
79752;BME280;69234;47.446;21.636;2023-12-22T00:26:57;98159.59;;;4.23;100.00
79752;BME280;69234;47.446;21.636;2023-12-22T00:27:28;98157.91;;;4.22;100.00
79752;BME280;69234;47.446;21.636;2023-12-22T00:27:59;98155.78;;;4.25;100.00
79752;BME280;69234;47.446;21.636;2023-12-22T00:28:30;98149.66;;;4.25;100.00
79752;BME280;69234;47.446;21.636;2023-12-22T00:29:02;98144.34;;;4.25;100.00
79752;BME280;69234;47.446;21.636;2023-12-22T00:29:33;98157.63;;;4.25;100.00
79752;BME280;69234;47.446;21.636;2023-12-22T00:30:07;98159.00;;;4.29;100.00
79752;BME280;69234;47.446;21.636;2023-12-22T00:30:38;98153.84;;;4.27;100.00
79752;BME280;69234;47.446;21.636;2023-12-22T00:31:09;98145.72;;;4.29;100.00
79752;BME280;69234;47.446;21.636;2023-12-22T00:31:39;98142.09;;;4.30;100.00
79752;BME280;69234;47.446;21.636;2023-12-22T00:32:10;98147.69;;;4.27;100.00
79752;BME280;69234;47.446;21.636;2023-12-22T00:32:41;98146.41;;;4.31;100.00
79752;BME280;69234;47.446;21.636;2023-12-22T00:33:13;98146.41;;;4.31;100.00
79752;BME280;69234;47.446;21.636;2023-12-22T00:33:45;98147.69;;;4.27;100.00
79752;BME280;69234;47.446;21.636;2023-12-22T00:34:16;98146.56;;;4.29;100.00
79752;BME280;69234;47.446;21.636;2023-12-22T00:34:47;98146.41;;;4.31;100.00
79752;BME280;69234;47.446;21.636;2023-12-22T00:35:18;98144.59;;;4.32;100.00
79752;BME280;69234;47.446;21.636;2023-12-22T00:35:48;98144.28;;;4.35;100.00
79752;BME280;69234;47.446;21.636;2023-12-22T00:36:19;98151.44;;;4.34;100.00
79752;BME280;69234;47.446;21.636;2023-12-22T00:36:54;98145.41;;;4.32;100.00
79752;BME280;69234;47.446;21.636;2023-12-22T00:37:25;98150.72;;;4.32;100.00
79752;BME280;69234;47.446;21.636;2023-12-22T00:37:56;98160.25;;;4.35;100.00
79752;BME280;69234;47.446;21.636;2023-12-22T00:38:27;98152.97;;;4.37;100.00
79752;BME280;69234;47.446;21.636;2023-12-22T00:38:58;98156.03;;;4.32;100.00
79752;BME280;69234;47.446;21.636;2023-12-22T00:39:29;98158.03;;;4.30;100.00
79752;BME280;69234;47.446;21.636;2023-12-22T00:40:01;98159.84;;;4.29;100.00
79752;BME280;69234;47.446;21.636;2023-12-22T00:40:32;98154.66;;;4.28;99.87
79752;BME280;69234;47.446;21.636;2023-12-22T00:41:03;98155.75;;;4.35;99.90
79752;BME280;69234;47.446;21.636;2023-12-22T00:41:34;98162.19;;;4.33;100.00
79752;BME280;69234;47.446;21.636;2023-12-22T00:42:05;98159.69;;;4.31;100.00
79752;BME280;69234;47.446;21.636;2023-12-22T00:42:36;98164.31;;;4.29;100.00
79752;BME280;69234;47.446;21.636;2023-12-22T00:43:07;98158.03;;;4.30;100.00
79752;BME280;69234;47.446;21.636;2023-12-22T00:43:38;98172.28;;;4.29;100.00
79752;BME280;69234;47.446;21.636;2023-12-22T00:44:09;98160.53;;;4.32;100.00
79752;BME280;69234;47.446;21.636;2023-12-22T00:44:40;98167.66;;;4.31;100.00
79752;BME280;69234;47.446;21.636;2023-12-22T00:45:11;98173.69;;;4.33;99.91
79752;BME280;69234;47.446;21.636;2023-12-22T00:45:42;98190.59;;;4.32;100.00
79752;BME280;69234;47.446;21.636;2023-12-22T00:46:13;98210.03;;;4.33;99.69
79752;BME280;69234;47.446;21.636;2023-12-22T00:46:44;98225.00;;;4.34;99.77
79752;BME280;69234;47.446;21.636;2023-12-22T00:47:15;98227.66;;;4.34;100.00
79752;BME280;69234;47.446;21.636;2023-12-22T00:47:46;98204.88;;;4.31;100.00
79752;BME280;69234;47.446;21.636;2023-12-22T00:48:17;98207.53;;;4.31;100.00
79752;BME280;69234;47.446;21.636;2023-12-22T00:48:48;98217.88;;;4.34;99.96
79752;BME280;69234;47.446;21.636;2023-12-22T00:49:19;98203.75;;;4.34;99.97
79752;BME280;69234;47.446;21.636;2023-12-22T00:49:52;98198.72;;;4.31;100.00
79752;BME280;69234;47.446;21.636;2023-12-22T00:50:23;98203.59;;;4.35;100.00
79752;BME280;69234;47.446;21.636;2023-12-22T00:50:54;98206.13;;;4.37;99.71
79752;BME280;69234;47.446;21.636;2023-12-22T00:51:25;98207.91;;;4.36;99.82
79752;BME280;69234;47.446;21.636;2023-12-22T00:51:56;98204.31;;;4.37;100.00
79752;BME280;69234;47.446;21.636;2023-12-22T00:52:26;98206.25;;;4.35;99.84
79752;BME280;69234;47.446;21.636;2023-12-22T00:52:57;98202.06;;;4.33;99.53
79752;BME280;69234;47.446;21.636;2023-12-22T00:53:28;98211.44;;;4.37;99.65
79752;BME280;69234;47.446;21.636;2023-12-22T00:53:59;98215.59;;;4.39;99.88
79752;BME280;69234;47.446;21.636;2023-12-22T00:54:30;98213.09;;;4.38;100.00
79752;BME280;69234;47.446;21.636;2023-12-22T00:55:02;98213.22;;;4.36;99.76
79752;BME280;69234;47.446;21.636;2023-12-22T00:55:33;98217.72;;;4.36;100.00
79752;BME280;69234;47.446;21.636;2023-12-22T00:56:04;98212.28;;;4.37;100.00
79752;BME280;69234;47.446;21.636;2023-12-22T00:56:36;98210.44;;;4.38;99.70
79752;BME280;69234;47.446;21.636;2023-12-22T00:57:07;98214.94;;;4.37;99.28
79752;BME280;69234;47.446;21.636;2023-12-22T00:57:38;98217.44;;;4.39;100.00
79752;BME280;69234;47.446;21.636;2023-12-22T00:58:09;98210.28;;;4.39;99.69
79752;BME280;69234;47.446;21.636;2023-12-22T00:58:41;98220.25;;;4.37;99.44
79752;BME280;69234;47.446;21.636;2023-12-22T00:59:11;98224.56;;;4.38;99.60
79752;BME280;69234;47.446;21.636;2023-12-22T00:59:42;98211.28;;;4.38;100.00
79752;BME280;69234;47.446;21.636;2023-12-22T01:00:18;98211.28;;;4.38;99.86
79752;BME280;69234;47.446;21.636;2023-12-22T01:00:49;98210.00;;;4.42;99.69
79752;BME280;69234;47.446;21.636;2023-12-22T01:01:20;98203.03;;;4.41;99.21
79752;BME280;69234;47.446;21.636;2023-12-22T01:01:51;98206.66;;;4.40;99.69
79752;BME280;69234;47.446;21.636;2023-12-22T01:02:22;98188.75;;;4.42;99.10
79752;BME280;69234;47.446;21.636;2023-12-22T01:02:53;98190.72;;;4.40;99.89
79752;BME280;69234;47.446;21.636;2023-12-22T01:03:24;98184.41;;;4.41;99.75
79752;BME280;69234;47.446;21.636;2023-12-22T01:03:55;98172.94;;;4.41;100.00
79752;BME280;69234;47.446;21.636;2023-12-22T01:04:26;98173.25;;;4.38;99.20
79752;BME280;69234;47.446;21.636;2023-12-22T01:04:57;98165.28;;;4.38;99.97
79752;BME280;69234;47.446;21.636;2023-12-22T01:05:28;98161.63;;;4.39;99.32
79752;BME280;69234;47.446;21.636;2023-12-22T01:05:59;98165.28;;;4.38;100.00
79752;BME280;69234;47.446;21.636;2023-12-22T01:06:29;98156.75;;;4.34;100.00
79752;BME280;69234;47.446;21.636;2023-12-22T01:07:00;98159.94;;;4.38;99.59
79752;BME280;69234;47.446;21.636;2023-12-22T01:07:31;98165.28;;;4.38;99.62
79752;BME280;69234;47.446;21.636;2023-12-22T01:08:02;98159.25;;;4.36;99.44
79752;BME280;69234;47.446;21.636;2023-12-22T01:08:33;98152.44;;;4.33;99.68
79752;BME280;69234;47.446;21.636;2023-12-22T01:09:05;98153.94;;;4.36;99.91
79752;BME280;69234;47.446;21.636;2023-12-22T01:09:36;98146.25;;;4.33;99.73
79752;BME280;69234;47.446;21.636;2023-12-22T01:10:10;98136.78;;;4.30;100.00
79752;BME280;69234;47.446;21.636;2023-12-22T01:10:41;98136.78;;;4.30;99.87
79752;BME280;69234;47.446;21.636;2023-12-22T01:11:12;98142.91;;;4.31;99.62
79752;BME280;69234;47.446;21.636;2023-12-22T01:11:43;98140.38;;;4.29;99.83
79752;BME280;69234;47.446;21.636;2023-12-22T01:12:14;98130.91;;;4.26;100.00
79752;BME280;69234;47.446;21.636;2023-12-22T01:12:45;98138.19;;;4.24;100.00
79752;BME280;69234;47.446;21.636;2023-12-22T01:13:15;98140.69;;;4.26;99.61
79752;BME280;69234;47.446;21.636;2023-12-22T01:13:46;98140.69;;;4.26;100.00
79752;BME280;69234;47.446;21.636;2023-12-22T01:14:17;98133.69;;;4.25;99.99
79752;BME280;69234;47.446;21.636;2023-12-22T01:14:48;98134.69;;;4.24;100.00
79752;BME280;69234;47.446;21.636;2023-12-22T01:15:22;98142.50;;;4.25;99.26
79752;BME280;69234;47.446;21.636;2023-12-22T01:15:53;98131.03;;;4.25;99.68
79752;BME280;69234;47.446;21.636;2023-12-22T01:16:24;98122.25;;;4.24;99.48
79752;BME280;69234;47.446;21.636;2023-12-22T01:16:55;98119.75;;;4.23;100.00
79752;BME280;69234;47.446;21.636;2023-12-22T01:17:26;98119.41;;;4.26;99.08
79752;BME280;69234;47.446;21.636;2023-12-22T01:17:57;98123.06;;;4.25;100.00
79752;BME280;69234;47.446;21.636;2023-12-22T01:18:28;98130.06;;;4.26;100.00
79752;BME280;69234;47.446;21.636;2023-12-22T01:19:00;98115.25;;;4.23;100.00
79752;BME280;69234;47.446;21.636;2023-12-22T01:19:31;98118.03;;;4.22;100.00
79752;BME280;69234;47.446;21.636;2023-12-22T01:20:03;98124.34;;;4.21;99.64
79752;BME280;69234;47.446;21.636;2023-12-22T01:20:34;98125.19;;;4.21;99.80
79752;BME280;69234;47.446;21.636;2023-12-22T01:21:04;98140.00;;;4.24;100.00
79752;BME280;69234;47.446;21.636;2023-12-22T01:21:36;98147.97;;;4.24;99.54
79752;BME280;69234;47.446;21.636;2023-12-22T01:22:07;98142.50;;;4.25;99.19
79752;BME280;69234;47.446;21.636;2023-12-22T01:22:38;98153.28;;;4.24;99.20
79752;BME280;69234;47.446;21.636;2023-12-22T01:23:09;98153.28;;;4.24;100.00
79752;BME280;69234;47.446;21.636;2023-12-22T01:23:40;98159.59;;;4.23;99.58
79752;BME280;69234;47.446;21.636;2023-12-22T01:24:10;98155.78;;;4.25;99.87
79752;BME280;69234;47.446;21.636;2023-12-22T01:24:41;98146.31;;;4.23;100.00
79752;BME280;69234;47.446;21.636;2023-12-22T01:25:14;98149.94;;;4.22;99.46
79752;BME280;69234;47.446;21.636;2023-12-22T01:25:45;98147.28;;;4.22;99.84
79752;BME280;69234;47.446;21.636;2023-12-22T01:26:16;98149.25;;;4.20;100.00
79752;BME280;69234;47.446;21.636;2023-12-22T01:26:46;98146.59;;;4.20;100.00
79752;BME280;69234;47.446;21.636;2023-12-22T01:27:17;98147.28;;;4.22;100.00
79752;BME280;69234;47.446;21.636;2023-12-22T01:27:48;98147.88;;;4.16;100.00
79752;BME280;69234;47.446;21.636;2023-12-22T01:28:21;98144.22;;;4.17;100.00
79752;BME280;69234;47.446;21.636;2023-12-22T01:28:52;98139.91;;;4.16;100.00
79752;BME280;69234;47.446;21.636;2023-12-22T01:29:22;98141.72;;;4.15;100.00
79752;BME280;69234;47.446;21.636;2023-12-22T01:29:53;98145.91;;;4.18;100.00
79752;BME280;69234;47.446;21.636;2023-12-22T01:30:24;98147.88;;;4.16;100.00
79752;BME280;69234;47.446;21.636;2023-12-22T01:30:55;98144.69;;;4.12;100.00
79752;BME280;69234;47.446;21.636;2023-12-22T01:31:26;98143.13;;;4.10;100.00
79752;BME280;69234;47.446;21.636;2023-12-22T01:31:57;98149.00;;;4.13;100.00
79752;BME280;69234;47.446;21.636;2023-12-22T01:32:28;98152.78;;;4.11;100.00
79752;BME280;69234;47.446;21.636;2023-12-22T01:33:05;98156.44;;;4.10;100.00
79752;BME280;69234;47.446;21.636;2023-12-22T01:33:35;98152.78;;;4.11;100.00
79752;BME280;69234;47.446;21.636;2023-12-22T01:34:07;98159.75;;;4.12;100.00
79752;BME280;69234;47.446;21.636;2023-12-22T01:34:37;98151.94;;;4.10;100.00
79752;BME280;69234;47.446;21.636;2023-12-22T01:35:08;98151.78;;;4.12;100.00
79752;BME280;69234;47.446;21.636;2023-12-22T01:35:40;98143.53;;;4.15;100.00
79752;BME280;69234;47.446;21.636;2023-12-22T01:36:11;98147.75;;;4.08;100.00
79752;BME280;69234;47.446;21.636;2023-12-22T01:36:42;98136.00;;;4.10;100.00
79752;BME280;69234;47.446;21.636;2023-12-22T01:37:13;98142.31;;;4.09;100.00
79752;BME280;69234;47.446;21.636;2023-12-22T01:37:44;98144.69;;;4.12;100.00
79752;BME280;69234;47.446;21.636;2023-12-22T01:38:18;98147.19;;;4.14;100.00
79752;BME280;69234;47.446;21.636;2023-12-22T01:38:48;98140.88;;;4.15;100.00
79752;BME280;69234;47.446;21.636;2023-12-22T01:39:19;98139.50;;;4.11;100.00
79752;BME280;69234;47.446;21.636;2023-12-22T01:39:50;98127.88;;;4.12;100.00
79752;BME280;69234;47.446;21.636;2023-12-22T01:40:21;98130.53;;;4.12;100.00
79752;BME280;69234;47.446;21.636;2023-12-22T01:40:52;98133.19;;;4.12;100.00
79752;BME280;69234;47.446;21.636;2023-12-22T01:41:23;98129.69;;;4.11;100.00
79752;BME280;69234;47.446;21.636;2023-12-22T01:41:54;98142.69;;;4.14;100.00
79752;BME280;69234;47.446;21.636;2023-12-22T01:42:25;98141.03;;;4.13;100.00
79752;BME280;69234;47.446;21.636;2023-12-22T01:42:56;98148.84;;;4.15;100.00
79752;BME280;69234;47.446;21.636;2023-12-22T01:43:27;98144.22;;;4.17;100.00
79752;BME280;69234;47.446;21.636;2023-12-22T01:43:58;98146.59;;;4.20;100.00
79752;BME280;69234;47.446;21.636;2023-12-22T01:44:29;98144.91;;;4.19;100.00
79752;BME280;69234;47.446;21.636;2023-12-22T01:45:00;98136.94;;;4.19;100.00
79752;BME280;69234;47.446;21.636;2023-12-22T01:45:32;98143.66;;;4.23;100.00
79752;BME280;69234;47.446;21.636;2023-12-22T01:46:04;98132.16;;;4.22;100.00
79752;BME280;69234;47.446;21.636;2023-12-22T01:46:36;98128.00;;;4.20;100.00
79752;BME280;69234;47.446;21.636;2023-12-22T01:47:07;98137.81;;;4.19;100.00
79752;BME280;69234;47.446;21.636;2023-12-22T01:47:38;98124.09;;;4.14;100.00
79752;BME280;69234;47.446;21.636;2023-12-22T01:48:10;98134.59;;;4.16;100.00
79752;BME280;69234;47.446;21.636;2023-12-22T01:48:41;98132.63;;;4.18;100.00
79752;BME280;69234;47.446;21.636;2023-12-22T01:49:13;98125.19;;;4.21;100.00
79752;BME280;69234;47.446;21.636;2023-12-22T01:49:45;98123.53;;;4.20;100.00
79752;BME280;69234;47.446;21.636;2023-12-22T01:50:16;98126.03;;;4.22;100.00
79752;BME280;69234;47.446;21.636;2023-12-22T01:50:47;98128.69;;;4.22;100.00
79752;BME280;69234;47.446;21.636;2023-12-22T01:51:19;98141.53;;;4.26;100.00
79752;BME280;69234;47.446;21.636;2023-12-22T01:51:50;98146.00;;;4.26;100.00
79752;BME280;69234;47.446;21.636;2023-12-22T01:52:22;98142.78;;;4.22;100.00
79752;BME280;69234;47.446;21.636;2023-12-22T01:52:53;98146.84;;;4.26;100.00
79752;BME280;69234;47.446;21.636;2023-12-22T01:53:25;98137.19;;;4.25;100.00
79752;BME280;69234;47.446;21.636;2023-12-22T01:53:57;98137.06;;;4.27;100.00
79752;BME280;69234;47.446;21.636;2023-12-22T01:54:28;98133.13;;;4.31;100.00
79752;BME280;69234;47.446;21.636;2023-12-22T01:55:00;98132.41;;;4.29;100.00
79752;BME280;69234;47.446;21.636;2023-12-22T01:55:31;98141.09;;;4.31;100.00
79752;BME280;69234;47.446;21.636;2023-12-22T01:56:02;98140.09;;;4.32;100.00
79752;BME280;69234;47.446;21.636;2023-12-22T01:56:34;98139.69;;;4.37;100.00
79752;BME280;69234;47.446;21.636;2023-12-22T01:57:06;98143.00;;;4.39;100.00
79752;BME280;69234;47.446;21.636;2023-12-22T01:57:37;98141.88;;;4.41;100.00
79752;BME280;69234;47.446;21.636;2023-12-22T01:58:08;98140.50;;;4.37;100.00
79752;BME280;69234;47.446;21.636;2023-12-22T01:58:40;98139.38;;;4.40;100.00
79752;BME280;69234;47.446;21.636;2023-12-22T01:59:21;98132.94;;;4.42;100.00
79752;BME280;69234;47.446;21.636;2023-12-22T01:59:52;98133.09;;;4.41;100.00
79752;BME280;69234;47.446;21.636;2023-12-22T02:00:23;98129.19;;;4.35;100.00
79752;BME280;69234;47.446;21.636;2023-12-22T02:00:55;98121.09;;;4.37;100.00
79752;BME280;69234;47.446;21.636;2023-12-22T02:01:28;98127.22;;;4.37;100.00
79752;BME280;69234;47.446;21.636;2023-12-22T02:01:59;98126.94;;;4.40;100.00
79752;BME280;69234;47.446;21.636;2023-12-22T02:02:30;98132.94;;;4.42;100.00
79752;BME280;69234;47.446;21.636;2023-12-22T02:03:02;98133.91;;;4.41;100.00
79752;BME280;69234;47.446;21.636;2023-12-22T02:03:33;98129.06;;;4.37;100.00
79752;BME280;69234;47.446;21.636;2023-12-22T02:04:05;98129.97;;;4.45;100.00
79752;BME280;69234;47.446;21.636;2023-12-22T02:04:36;98127.47;;;4.44;100.00
79752;BME280;69234;47.446;21.636;2023-12-22T02:05:07;98137.13;;;4.45;100.00
79752;BME280;69234;47.446;21.636;2023-12-22T02:05:43;98134.16;;;4.48;100.00
79752;BME280;69234;47.446;21.636;2023-12-22T02:06:16;98128.31;;;4.44;100.00
79752;BME280;69234;47.446;21.636;2023-12-22T02:06:47;98130.97;;;4.44;100.00
79752;BME280;69234;47.446;21.636;2023-12-22T02:07:18;98131.50;;;4.48;100.00
79752;BME280;69234;47.446;21.636;2023-12-22T02:07:49;98137.66;;;4.48;100.00
79752;BME280;69234;47.446;21.636;2023-12-22T02:08:21;98144.50;;;4.51;100.00
79752;BME280;69234;47.446;21.636;2023-12-22T02:08:54;98149.81;;;4.51;100.00
79752;BME280;69234;47.446;21.636;2023-12-22T02:09:25;98141.84;;;4.51;100.00
79752;BME280;69234;47.446;21.636;2023-12-22T02:09:56;98143.34;;;4.53;100.00
79752;BME280;69234;47.446;21.636;2023-12-22T02:10:26;98136.38;;;4.52;100.00
79752;BME280;69234;47.446;21.636;2023-12-22T02:10:57;98121.72;;;4.48;100.00
79752;BME280;69234;47.446;21.636;2023-12-22T02:11:28;98122.53;;;4.49;100.00
79752;BME280;69234;47.446;21.636;2023-12-22T02:12:00;98125.75;;;4.52;100.00
79752;BME280;69234;47.446;21.636;2023-12-22T02:12:30;98119.59;;;4.52;100.00
79752;BME280;69234;47.446;21.636;2023-12-22T02:13:02;98118.47;;;4.55;100.00
79752;BME280;69234;47.446;21.636;2023-12-22T02:13:33;98114.28;;;4.52;100.00
79752;BME280;69234;47.446;21.636;2023-12-22T02:14:04;98122.09;;;4.53;100.00
79752;BME280;69234;47.446;21.636;2023-12-22T02:14:35;98111.16;;;4.57;100.00
79752;BME280;69234;47.446;21.636;2023-12-22T02:15:07;98125.00;;;4.60;100.00
79752;BME280;69234;47.446;21.636;2023-12-22T02:15:38;98116.19;;;4.60;100.00
79752;BME280;69234;47.446;21.636;2023-12-22T02:17:26;98131.84;;;4.63;100.00
79752;BME280;69234;47.446;21.636;2023-12-22T02:18:47;98135.19;;;4.65;100.00
79752;BME280;69234;47.446;21.636;2023-12-22T02:20:10;98129.88;;;4.65;100.00
79752;BME280;69234;47.446;21.636;2023-12-22T02:20:42;98138.81;;;4.64;100.00
79752;BME280;69234;47.446;21.636;2023-12-22T02:21:14;98126.22;;;4.66;100.00
79752;BME280;69234;47.446;21.636;2023-12-22T02:22:08;98122.56;;;4.67;100.00
79752;BME280;69234;47.446;21.636;2023-12-22T02:22:39;98127.59;;;4.70;100.00
79752;BME280;69234;47.446;21.636;2023-12-22T02:23:10;98121.28;;;4.71;100.00
79752;BME280;69234;47.446;21.636;2023-12-22T02:23:41;98126.31;;;4.74;100.00
79752;BME280;69234;47.446;21.636;2023-12-22T02:24:12;98126.00;;;4.77;100.00
79752;BME280;69234;47.446;21.636;2023-12-22T02:24:43;98124.34;;;4.76;100.00
79752;BME280;69234;47.446;21.636;2023-12-22T02:25:14;98128.00;;;4.75;100.00
79752;BME280;69234;47.446;21.636;2023-12-22T02:25:45;98119.03;;;4.76;100.00
79752;BME280;69234;47.446;21.636;2023-12-22T02:26:28;98103.53;;;4.71;100.00
79752;BME280;69234;47.446;21.636;2023-12-22T02:28:07;98097.69;;;4.68;100.00
79752;BME280;69234;47.446;21.636;2023-12-22T02:28:40;98096.81;;;4.67;100.00
79752;BME280;69234;47.446;21.636;2023-12-22T02:29:14;98104.97;;;4.66;100.00
79752;BME280;69234;47.446;21.636;2023-12-22T02:30:09;98104.41;;;4.62;100.00
79752;BME280;69234;47.446;21.636;2023-12-22T02:31:36;98096.59;;;4.61;100.00
79752;BME280;69234;47.446;21.636;2023-12-22T02:32:17;98098.56;;;4.59;100.00
79752;BME280;69234;47.446;21.636;2023-12-22T02:32:56;98101.22;;;4.59;100.00
79752;BME280;69234;47.446;21.636;2023-12-22T02:33:29;98099.28;;;4.61;100.00
79752;BME280;69234;47.446;21.636;2023-12-22T02:34:07;98094.91;;;4.60;100.00
79752;BME280;69234;47.446;21.636;2023-12-22T02:34:42;98093.53;;;4.56;100.00
79752;BME280;69234;47.446;21.636;2023-12-22T02:35:23;98095.06;;;4.58;100.00
79752;BME280;69234;47.446;21.636;2023-12-22T02:36:02;98099.56;;;4.58;100.00
79752;BME280;69234;47.446;21.636;2023-12-22T02:36:36;98096.03;;;4.57;100.00
79752;BME280;69234;47.446;21.636;2023-12-22T02:37:10;98095.63;;;4.62;100.00
79752;BME280;69234;47.446;21.636;2023-12-22T02:37:42;98090.44;;;4.60;100.00
79752;BME280;69234;47.446;21.636;2023-12-22T02:38:15;98094.91;;;4.60;100.00
79752;BME280;69234;47.446;21.636;2023-12-22T02:38:53;98094.25;;;4.58;100.00
79752;BME280;69234;47.446;21.636;2023-12-22T02:39:25;98092.41;;;4.58;100.00
79752;BME280;69234;47.446;21.636;2023-12-22T02:39:56;98099.41;;;4.59;100.00
79752;BME280;69234;47.446;21.636;2023-12-22T02:40:30;98097.44;;;4.61;100.00
79752;BME280;69234;47.446;21.636;2023-12-22T02:41:23;98106.38;;;4.60;100.00
79752;BME280;69234;47.446;21.636;2023-12-22T02:41:54;98107.91;;;4.63;100.00
79752;BME280;69234;47.446;21.636;2023-12-22T02:42:26;98100.22;;;4.60;100.00
79752;BME280;69234;47.446;21.636;2023-12-22T02:43:02;98085.41;;;4.57;100.00
79752;BME280;69234;47.446;21.636;2023-12-22T02:43:33;98095.75;;;4.60;100.00
79752;BME280;69234;47.446;21.636;2023-12-22T02:44:05;98097.56;;;4.60;100.00
79752;BME280;69234;47.446;21.636;2023-12-22T02:44:36;98098.69;;;4.57;100.00
79752;BME280;69234;47.446;21.636;2023-12-22T02:45:17;98096.91;;;4.58;100.00
79752;BME280;69234;47.446;21.636;2023-12-22T02:45:51;98099.09;;;4.62;100.00
79752;BME280;69234;47.446;21.636;2023-12-22T02:46:22;98094.78;;;4.61;100.00
79752;BME280;69234;47.446;21.636;2023-12-22T02:46:53;98087.09;;;4.58;100.00
79752;BME280;69234;47.446;21.636;2023-12-22T02:47:24;98088.06;;;4.57;100.00
79752;BME280;69234;47.446;21.636;2023-12-22T02:47:55;98078.28;;;4.58;100.00
79752;BME280;69234;47.446;21.636;2023-12-22T02:48:26;98090.44;;;4.60;100.00
79752;BME280;69234;47.446;21.636;2023-12-22T02:48:57;98076.59;;;4.57;100.00
79752;BME280;69234;47.446;21.636;2023-12-22T02:49:28;98077.75;;;4.54;100.00
79752;BME280;69234;47.446;21.636;2023-12-22T02:49:59;98080.94;;;4.58;100.00
79752;BME280;69234;47.446;21.636;2023-12-22T02:50:30;98079.25;;;4.57;100.00
79752;BME280;69234;47.446;21.636;2023-12-22T02:51:01;98087.41;;;4.55;100.00
79752;BME280;69234;47.446;21.636;2023-12-22T02:51:32;98075.94;;;4.55;100.00